createdAt,value
2016-10-23T00:00:08.298Z,952.95
2016-10-23T00:01:07.776Z,952.91
2016-10-23T00:02:07.420Z,952.93
2016-10-23T00:03:08.052Z,952.91
2016-10-23T00:04:08.631Z,952.92
2016-10-23T00:05:08.510Z,952.90
2016-10-23T00:06:13.923Z,952.91
2016-10-23T00:07:07.769Z,952.91
2016-10-23T00:08:07.357Z,952.89
2016-10-23T00:09:07.966Z,952.91
2016-10-23T00:10:07.552Z,952.88
2016-10-23T00:11:08.188Z,952.89
2016-10-23T00:12:08.185Z,952.89
2016-10-23T00:13:07.824Z,952.87
2016-10-23T00:14:07.460Z,952.84
2016-10-23T00:15:08.130Z,952.82
2016-10-23T00:16:08.097Z,952.83
2016-10-23T00:17:08.041Z,952.77
2016-10-23T00:18:07.704Z,952.76
2016-10-23T00:19:07.531Z,952.77
2016-10-23T00:20:08.591Z,952.75
2016-10-23T00:21:08.242Z,952.75
2016-10-23T00:22:08.153Z,952.73
2016-10-23T00:23:07.813Z,952.74
2016-10-23T00:24:07.792Z,952.75
2016-10-23T00:25:07.519Z,952.70
2016-10-23T00:26:08.444Z,952.72
2016-10-23T00:27:08.096Z,952.70
2016-10-23T00:28:07.972Z,952.70
2016-10-23T00:29:07.557Z,952.75
2016-10-23T00:30:08.070Z,952.80
2016-10-23T00:31:08.082Z,952.71
2016-10-23T00:32:07.616Z,952.68
2016-10-23T00:33:08.260Z,952.76
2016-10-23T00:34:08.059Z,952.74
2016-10-23T00:35:07.613Z,952.74
2016-10-23T00:36:08.314Z,952.72
2016-10-23T00:37:07.654Z,952.68
2016-10-23T00:38:08.288Z,952.70
2016-10-23T00:39:07.858Z,952.69
2016-10-23T00:40:07.630Z,952.72
2016-10-23T00:41:08.323Z,952.72
2016-10-23T00:42:07.952Z,952.72
2016-10-23T00:43:07.507Z,952.76
2016-10-23T00:44:08.146Z,952.70
2016-10-23T00:45:07.779Z,952.76
2016-10-23T00:46:08.002Z,952.75
2016-10-23T00:47:07.569Z,952.75
2016-10-23T00:48:08.117Z,952.72
2016-10-23T00:49:07.623Z,952.74
2016-10-23T00:50:08.490Z,952.75
2016-10-23T00:51:08.250Z,952.72
2016-10-23T00:52:07.834Z,952.72
2016-10-23T00:53:07.311Z,952.66
2016-10-23T00:54:07.846Z,952.65
2016-10-23T00:55:07.391Z,952.67
2016-10-23T00:56:08.019Z,952.64
2016-10-23T00:57:07.519Z,952.67
2016-10-23T00:58:08.083Z,952.67
2016-10-23T00:59:07.704Z,952.69
2016-10-23T01:00:08.273Z,952.67
2016-10-23T01:01:08.241Z,952.64
2016-10-23T01:02:07.703Z,952.65
2016-10-23T01:03:08.216Z,952.65
2016-10-23T01:04:07.588Z,952.65
2016-10-23T01:05:08.227Z,952.67
2016-10-23T01:06:07.792Z,952.58
2016-10-23T01:07:07.833Z,952.64
2016-10-23T01:08:08.427Z,952.61
2016-10-23T01:09:08.205Z,952.63
2016-10-23T01:10:07.733Z,952.63
2016-10-23T01:11:08.101Z,952.65
2016-10-23T01:12:08.157Z,952.60
2016-10-23T01:13:08.725Z,952.61
2016-10-23T01:14:08.444Z,952.57
2016-10-23T01:15:08.832Z,952.54
2016-10-23T01:16:07.837Z,952.57
2016-10-23T01:17:07.989Z,952.57
2016-10-23T01:18:07.585Z,952.59
2016-10-23T01:19:08.057Z,952.56
2016-10-23T01:20:07.698Z,952.56
2016-10-23T01:21:08.298Z,952.56
2016-10-23T01:22:08.015Z,952.59
2016-10-23T01:23:07.892Z,952.59
2016-10-23T01:24:07.595Z,952.54
2016-10-23T01:25:08.203Z,952.55
2016-10-23T01:26:07.780Z,952.55
2016-10-23T01:27:07.344Z,952.56
2016-10-23T01:28:07.866Z,952.50
2016-10-23T01:29:08.124Z,952.52
2016-10-23T01:30:07.483Z,952.51
2016-10-23T01:31:07.518Z,952.53
2016-10-23T01:32:08.079Z,952.49
2016-10-23T01:33:07.895Z,952.49
2016-10-23T01:34:07.533Z,952.50
2016-10-23T01:35:08.192Z,952.51
2016-10-23T01:36:07.305Z,952.48
2016-10-23T01:37:07.643Z,952.47
2016-10-23T01:38:07.430Z,952.48
2016-10-23T01:39:08.169Z,952.50
2016-10-23T01:40:07.750Z,952.47
2016-10-23T01:41:07.332Z,952.44
2016-10-23T01:42:07.852Z,952.45
2016-10-23T01:43:07.713Z,952.44
2016-10-23T01:44:08.271Z,952.40
2016-10-23T01:45:08.151Z,952.40
2016-10-23T01:46:08.343Z,952.38
2016-10-23T01:47:07.923Z,952.39
2016-10-23T01:48:07.398Z,952.37
2016-10-23T01:49:07.446Z,952.37
2016-10-23T01:50:08.208Z,952.36
2016-10-23T01:51:08.225Z,952.36
2016-10-23T01:52:07.766Z,952.30
2016-10-23T01:53:07.447Z,952.31
2016-10-23T01:54:08.179Z,952.30
2016-10-23T01:55:07.808Z,952.28
2016-10-23T01:56:07.323Z,952.27
2016-10-23T01:57:07.919Z,952.27
2016-10-23T01:58:07.424Z,952.24
2016-10-23T01:59:07.907Z,952.25
2016-10-23T02:00:07.458Z,952.25
2016-10-23T02:01:08.625Z,952.27
2016-10-23T02:02:08.265Z,952.26
2016-10-23T02:03:08.357Z,952.24
2016-10-23T02:04:07.939Z,952.22
2016-10-23T02:05:07.436Z,952.22
2016-10-23T02:06:07.968Z,952.21
2016-10-23T02:07:07.486Z,952.22
2016-10-23T02:08:08.025Z,952.22
2016-10-23T02:09:07.583Z,952.22
2016-10-23T02:10:07.665Z,952.19
2016-10-23T02:11:08.290Z,952.18
2016-10-23T02:12:07.877Z,952.21
2016-10-23T02:13:07.570Z,952.19
2016-10-23T02:14:07.505Z,952.24
2016-10-23T02:15:08.240Z,952.21
2016-10-23T02:16:07.689Z,952.19
2016-10-23T02:17:07.969Z,952.19
2016-10-23T02:18:07.661Z,952.17
2016-10-23T02:19:08.195Z,952.15
2016-10-23T02:20:07.788Z,952.13
2016-10-23T02:21:07.252Z,952.20
2016-10-23T02:22:08.045Z,952.20
2016-10-23T02:23:07.605Z,952.17
2016-10-23T02:24:08.180Z,952.19
2016-10-23T02:25:07.780Z,952.22
2016-10-23T02:26:07.277Z,952.18
2016-10-23T02:27:07.931Z,952.13
2016-10-23T02:28:07.592Z,952.10
2016-10-23T02:29:08.255Z,952.07
2016-10-23T02:30:07.482Z,952.08
2016-10-23T02:31:08.067Z,952.09
2016-10-23T02:32:07.612Z,952.07
2016-10-23T02:33:08.184Z,952.05
2016-10-23T02:34:07.605Z,952.07
2016-10-23T02:35:07.704Z,952.10
2016-10-23T02:36:08.287Z,952.09
2016-10-23T02:37:07.917Z,952.08
2016-10-23T02:38:07.518Z,952.05
2016-10-23T02:39:08.002Z,952.06
2016-10-23T02:40:07.646Z,952.05
2016-10-23T02:41:08.184Z,952.07
2016-10-23T02:42:07.677Z,952.04
2016-10-23T02:43:08.374Z,951.99
2016-10-23T02:44:07.875Z,952.00
2016-10-23T02:45:07.795Z,952.04
2016-10-23T02:46:08.110Z,951.99
2016-10-23T02:47:07.883Z,952.02
2016-10-23T02:48:07.456Z,952.04
2016-10-23T02:49:08.280Z,952.05
2016-10-23T02:50:07.860Z,952.01
2016-10-23T02:51:07.430Z,951.98
2016-10-23T02:52:08.014Z,951.98
2016-10-23T02:53:07.474Z,952.00
2016-10-23T02:54:08.080Z,952.00
2016-10-23T02:55:07.933Z,952.01
2016-10-23T02:56:07.743Z,951.96
2016-10-23T02:57:07.361Z,951.93
2016-10-23T02:58:07.924Z,951.97
2016-10-23T02:59:07.522Z,951.94
2016-10-23T03:00:08.183Z,951.93
2016-10-23T03:01:08.545Z,951.90
2016-10-23T03:02:08.283Z,951.90
2016-10-23T03:03:07.519Z,951.88
2016-10-23T03:04:08.177Z,951.90
2016-10-23T03:05:07.995Z,951.95
2016-10-23T03:06:07.644Z,951.92
2016-10-23T03:07:08.222Z,951.89
2016-10-23T03:08:07.904Z,951.93
2016-10-23T03:09:07.616Z,951.90
2016-10-23T03:10:08.294Z,951.86
2016-10-23T03:11:09.162Z,951.88
2016-10-23T03:12:07.444Z,951.81
2016-10-23T03:13:08.097Z,951.85
2016-10-23T03:14:07.758Z,951.83
2016-10-23T03:15:07.436Z,951.76
2016-10-23T03:16:08.732Z,951.74
2016-10-23T03:17:09.289Z,951.77
2016-10-23T03:18:07.978Z,951.77
2016-10-23T03:19:07.648Z,951.75
2016-10-23T03:20:08.267Z,951.78
2016-10-23T03:21:07.741Z,951.79
2016-10-23T03:22:08.302Z,951.72
2016-10-23T03:23:07.993Z,951.76
2016-10-23T03:24:07.510Z,951.75
2016-10-23T03:25:08.158Z,951.72
2016-10-23T03:26:07.831Z,951.73
2016-10-23T03:27:07.419Z,951.72
2016-10-23T03:28:07.930Z,951.70
2016-10-23T03:29:07.449Z,951.72
2016-10-23T03:30:08.252Z,951.68
2016-10-23T03:31:07.909Z,951.69
2016-10-23T03:32:07.572Z,951.73
2016-10-23T03:33:14.679Z,951.68
2016-10-23T03:34:07.407Z,951.69
2016-10-23T03:35:07.976Z,951.67
2016-10-23T03:36:07.680Z,951.67
2016-10-23T03:37:08.365Z,951.66
2016-10-23T03:38:07.970Z,951.66
2016-10-23T03:39:07.671Z,951.71
2016-10-23T03:40:07.719Z,951.69
2016-10-23T03:41:07.889Z,951.74
2016-10-23T03:42:07.632Z,951.76
2016-10-23T03:43:08.269Z,951.77
2016-10-23T03:44:07.909Z,951.76
2016-10-23T03:45:07.510Z,951.76
2016-10-23T03:46:08.144Z,951.76
2016-10-23T03:47:07.680Z,951.75
2016-10-23T03:48:08.482Z,951.72
2016-10-23T03:49:08.150Z,951.69
2016-10-23T03:50:07.774Z,951.71
2016-10-23T03:51:07.329Z,951.74
2016-10-23T03:52:07.985Z,951.74
2016-10-23T03:53:07.530Z,951.69
2016-10-23T03:54:07.463Z,951.70
2016-10-23T03:55:09.661Z,951.68
2016-10-23T03:56:08.391Z,951.68
2016-10-23T03:57:07.989Z,951.65
2016-10-23T03:58:13.214Z,951.67
2016-10-23T03:59:07.955Z,951.65
2016-10-23T04:00:07.601Z,951.65
2016-10-23T04:01:08.181Z,951.67
2016-10-23T04:02:07.699Z,951.64
2016-10-23T04:03:08.186Z,951.64
2016-10-23T04:04:08.159Z,951.69
2016-10-23T04:05:07.784Z,951.68
2016-10-23T04:06:07.453Z,951.74
2016-10-23T04:07:09.027Z,951.62
2016-10-23T04:08:08.898Z,951.62
2016-10-23T04:09:07.727Z,951.68
2016-10-23T04:10:13.637Z,951.70
2016-10-23T04:11:08.260Z,951.67
2016-10-23T04:12:07.827Z,951.64
2016-10-23T04:13:07.458Z,951.64
2016-10-23T04:14:08.188Z,951.65
2016-10-23T04:15:08.139Z,951.68
2016-10-23T04:16:07.812Z,951.68
2016-10-23T04:17:07.555Z,951.66
2016-10-23T04:18:08.157Z,951.64
2016-10-23T04:19:07.745Z,951.63
2016-10-23T04:20:08.422Z,951.66
2016-10-23T04:21:08.122Z,951.67
2016-10-23T04:22:08.169Z,951.67
2016-10-23T04:23:07.663Z,951.71
2016-10-23T04:24:14.184Z,951.67
2016-10-23T04:25:10.759Z,951.68
2016-10-23T04:26:08.233Z,951.73
2016-10-23T04:27:08.010Z,951.76
2016-10-23T04:28:07.639Z,951.74
2016-10-23T04:29:08.189Z,951.72
2016-10-23T04:30:07.930Z,951.73
2016-10-23T04:31:08.511Z,951.69
2016-10-23T04:32:08.176Z,951.72
2016-10-23T04:33:07.714Z,951.69
2016-10-23T04:34:07.342Z,951.71
2016-10-23T04:35:07.926Z,951.77
2016-10-23T04:36:07.476Z,951.73
2016-10-23T04:37:07.480Z,951.75
2016-10-23T04:38:08.050Z,951.64
2016-10-23T04:39:07.780Z,951.71
2016-10-23T04:40:07.303Z,951.70
2016-10-23T04:41:07.801Z,951.68
2016-10-23T04:42:07.392Z,951.65
2016-10-23T04:43:07.964Z,951.66
2016-10-23T04:44:07.543Z,951.67
2016-10-23T04:45:08.267Z,951.66
2016-10-23T04:46:08.834Z,951.67
2016-10-23T04:47:08.916Z,951.67
2016-10-23T04:48:07.428Z,951.80
2016-10-23T04:49:07.621Z,951.68
2016-10-23T04:50:08.251Z,951.75
2016-10-23T04:51:07.819Z,951.70
2016-10-23T04:52:07.635Z,951.70
2016-10-23T04:53:08.220Z,951.72
2016-10-23T04:54:07.977Z,951.69
2016-10-23T04:55:07.558Z,951.68
2016-10-23T04:56:08.071Z,951.65
2016-10-23T04:57:07.686Z,951.63
2016-10-23T04:58:08.207Z,951.61
2016-10-23T04:59:07.768Z,951.67
2016-10-23T05:00:07.299Z,951.66
2016-10-23T05:01:08.812Z,951.66
2016-10-23T05:02:07.626Z,951.66
2016-10-23T05:03:08.216Z,951.63
2016-10-23T05:04:07.840Z,951.64
2016-10-23T05:05:07.515Z,951.63
2016-10-23T05:06:08.167Z,951.62
2016-10-23T05:07:07.849Z,951.60
2016-10-23T05:08:07.438Z,951.61
2016-10-23T05:09:08.020Z,951.58
2016-10-23T05:10:07.608Z,951.56
2016-10-23T05:11:08.196Z,951.57
2016-10-23T05:12:07.780Z,951.53
2016-10-23T05:13:07.211Z,951.55
2016-10-23T05:14:07.973Z,951.54
2016-10-23T05:15:07.811Z,951.55
2016-10-23T05:16:08.292Z,951.58
2016-10-23T05:17:08.056Z,951.59
2016-10-23T05:18:07.587Z,951.62
2016-10-23T05:19:08.131Z,951.62
2016-10-23T05:20:07.729Z,951.62
2016-10-23T05:21:08.419Z,951.59
2016-10-23T05:22:08.092Z,951.59
2016-10-23T05:23:07.703Z,951.58
2016-10-23T05:24:08.243Z,951.54
2016-10-23T05:25:07.856Z,951.54
2016-10-23T05:26:07.464Z,951.58
2016-10-23T05:27:08.395Z,951.58
2016-10-23T05:28:08.938Z,951.56
2016-10-23T05:29:07.642Z,951.57
2016-10-23T05:30:08.421Z,951.54
2016-10-23T05:31:08.980Z,951.55
2016-10-23T05:32:07.630Z,951.56
2016-10-23T05:33:08.201Z,951.56
2016-10-23T05:34:08.155Z,951.59
2016-10-23T05:35:07.687Z,951.55
2016-10-23T05:36:08.271Z,951.58
2016-10-23T05:37:07.812Z,951.58
2016-10-23T05:38:07.416Z,951.61
2016-10-23T05:39:08.079Z,951.64
2016-10-23T05:40:07.679Z,951.65
2016-10-23T05:41:08.399Z,951.68
2016-10-23T05:42:08.114Z,951.76
2016-10-23T05:43:07.683Z,951.73
2016-10-23T05:44:08.334Z,951.68
2016-10-23T05:45:07.642Z,951.66
2016-10-23T05:46:08.528Z,951.63
2016-10-23T05:47:07.712Z,951.68
2016-10-23T05:48:08.391Z,951.66
2016-10-23T05:49:08.259Z,951.68
2016-10-23T05:50:08.063Z,951.67
2016-10-23T05:51:07.663Z,951.72
2016-10-23T05:52:08.837Z,951.81
2016-10-23T05:53:07.705Z,951.76
2016-10-23T05:54:08.327Z,951.80
2016-10-23T05:55:08.039Z,951.75
2016-10-23T05:56:07.789Z,951.76
2016-10-23T05:57:07.549Z,951.75
2016-10-23T05:58:08.264Z,951.69
2016-10-23T05:59:08.175Z,951.71
2016-10-23T06:00:13.374Z,951.72
2016-10-23T06:01:09.218Z,951.68
2016-10-23T06:02:07.880Z,951.65
2016-10-23T06:03:07.508Z,951.67
2016-10-23T06:04:08.102Z,951.65
2016-10-23T06:05:07.833Z,951.68
2016-10-23T06:06:07.370Z,951.66
2016-10-23T06:07:07.948Z,951.69
2016-10-23T06:08:07.623Z,951.72
2016-10-23T06:09:08.320Z,951.69
2016-10-23T06:10:07.968Z,951.69
2016-10-23T06:11:07.525Z,951.66
2016-10-23T06:12:08.103Z,951.72
2016-10-23T06:13:13.791Z,951.71
2016-10-23T06:14:07.666Z,951.65
2016-10-23T06:15:08.478Z,951.70
2016-10-23T06:16:08.184Z,951.74
2016-10-23T06:17:08.913Z,951.74
2016-10-23T06:18:07.803Z,951.76
2016-10-23T06:19:07.454Z,951.78
2016-10-23T06:20:08.044Z,951.78
2016-10-23T06:21:07.550Z,951.77
2016-10-23T06:22:08.156Z,951.79
2016-10-23T06:23:07.852Z,951.72
2016-10-23T06:24:07.476Z,951.71
2016-10-23T06:25:08.079Z,951.68
2016-10-23T06:26:07.569Z,951.70
2016-10-23T06:27:08.133Z,951.63
2016-10-23T06:28:07.835Z,951.65
2016-10-23T06:29:07.322Z,951.66
2016-10-23T06:30:08.006Z,951.68
2016-10-23T06:31:07.916Z,951.65
2016-10-23T06:32:07.420Z,951.66
2016-10-23T06:33:07.924Z,951.62
2016-10-23T06:34:07.472Z,951.60
2016-10-23T06:35:08.439Z,951.63
2016-10-23T06:36:08.056Z,951.61
2016-10-23T06:37:07.717Z,951.64
2016-10-23T06:38:08.374Z,951.66
2016-10-23T06:39:08.149Z,951.67
2016-10-23T06:40:07.748Z,951.63
2016-10-23T06:41:08.260Z,951.66
2016-10-23T06:42:07.893Z,951.69
2016-10-23T06:43:07.386Z,951.65
2016-10-23T06:44:08.090Z,951.65
2016-10-23T06:45:07.683Z,951.66
2016-10-23T06:46:09.167Z,951.68
2016-10-23T06:47:07.765Z,951.64
2016-10-23T06:48:07.323Z,951.59
2016-10-23T06:49:08.007Z,951.66
2016-10-23T06:50:07.635Z,951.58
2016-10-23T06:51:08.300Z,951.64
2016-10-23T06:52:08.016Z,951.70
2016-10-23T06:53:07.746Z,951.70
2016-10-23T06:54:07.477Z,951.71
2016-10-23T06:55:08.928Z,951.69
2016-10-23T06:56:07.625Z,951.73
2016-10-23T06:57:08.232Z,951.69
2016-10-23T06:58:07.876Z,951.70
2016-10-23T06:59:07.455Z,951.71
2016-10-23T07:00:08.016Z,951.72
2016-10-23T07:01:08.759Z,951.67
2016-10-23T07:02:07.960Z,951.68
2016-10-23T07:03:07.634Z,951.65
2016-10-23T07:04:08.314Z,951.64
2016-10-23T07:05:07.921Z,951.65
2016-10-23T07:06:07.537Z,951.68
2016-10-23T07:07:09.193Z,951.66
2016-10-23T07:08:08.221Z,951.65
2016-10-23T07:09:07.834Z,951.72
2016-10-23T07:10:07.471Z,951.69
2016-10-23T07:11:08.104Z,951.68
2016-10-23T07:12:07.698Z,951.72
2016-10-23T07:13:18.891Z,951.66
2016-10-23T07:14:07.522Z,951.68
2016-10-23T07:15:08.130Z,951.70
2016-10-23T07:16:08.383Z,951.73
2016-10-23T07:17:08.651Z,951.72
2016-10-23T07:18:08.572Z,951.75
2016-10-23T07:19:09.605Z,951.75
2016-10-23T07:20:09.732Z,951.83
2016-10-23T07:21:07.639Z,951.79
2016-10-23T07:22:10.193Z,951.85
2016-10-23T07:23:08.632Z,951.89
2016-10-23T07:24:08.831Z,951.88
2016-10-23T07:25:07.276Z,951.85
2016-10-23T07:26:07.781Z,951.80
2016-10-23T07:27:07.874Z,951.80
2016-10-23T07:28:07.530Z,951.72
2016-10-23T07:29:08.688Z,951.73
2016-10-23T07:30:07.712Z,951.74
2016-10-23T07:31:08.262Z,951.79
2016-10-23T07:32:07.929Z,951.79
2016-10-23T07:33:07.585Z,951.80
2016-10-23T07:34:08.189Z,951.74
2016-10-23T07:35:07.709Z,951.72
2016-10-23T07:36:08.723Z,951.71
2016-10-23T07:37:07.425Z,951.72
2016-10-23T07:38:08.597Z,951.68
2016-10-23T07:39:08.179Z,951.72
2016-10-23T07:40:08.570Z,951.68
2016-10-23T07:41:08.175Z,951.71
2016-10-23T07:42:07.814Z,951.70
2016-10-23T07:43:07.701Z,951.73
2016-10-23T07:44:08.345Z,951.68
2016-10-23T07:45:08.235Z,951.69
2016-10-23T07:46:08.528Z,951.70
2016-10-23T07:47:10.180Z,951.72
2016-10-23T07:48:08.568Z,951.72
2016-10-23T07:49:08.247Z,951.78
2016-10-23T07:50:07.859Z,951.76
2016-10-23T07:51:07.373Z,951.75
2016-10-23T07:52:08.224Z,951.76
2016-10-23T07:53:07.754Z,951.68
2016-10-23T07:54:08.339Z,951.72
2016-10-23T07:55:07.965Z,951.68
2016-10-23T07:56:07.549Z,951.69
2016-10-23T07:57:08.104Z,951.67
2016-10-23T07:58:07.649Z,951.64
2016-10-23T07:59:08.249Z,951.62
2016-10-23T08:00:08.847Z,951.64
2016-10-23T08:01:07.603Z,951.67
2016-10-23T08:02:08.307Z,951.65
2016-10-23T08:03:07.889Z,951.63
2016-10-23T08:04:07.447Z,951.60
2016-10-23T08:05:07.968Z,951.62
2016-10-23T08:06:13.086Z,951.64
2016-10-23T08:07:07.696Z,951.59
2016-10-23T08:08:08.377Z,951.58
2016-10-23T08:09:07.945Z,951.64
2016-10-23T08:10:07.660Z,951.67
2016-10-23T08:11:08.336Z,951.76
2016-10-23T08:12:07.988Z,951.71
2016-10-23T08:13:07.964Z,951.72
2016-10-23T08:14:07.853Z,951.72
2016-10-23T08:15:07.451Z,951.68
2016-10-23T08:16:07.999Z,951.65
2016-10-23T08:17:07.658Z,951.62
2016-10-23T08:18:10.288Z,951.57
2016-10-23T08:19:08.101Z,951.58
2016-10-23T08:20:07.807Z,951.55
2016-10-23T08:21:07.954Z,951.51
2016-10-23T08:22:09.364Z,951.53
2016-10-23T08:23:08.889Z,951.49
2016-10-23T08:24:07.424Z,951.46
2016-10-23T08:25:08.109Z,951.50
2016-10-23T08:26:07.823Z,951.50
2016-10-23T08:27:07.639Z,951.51
2016-10-23T08:28:08.339Z,951.51
2016-10-23T08:29:07.892Z,951.48
2016-10-23T08:30:18.868Z,951.53
2016-10-23T08:31:07.663Z,951.50
2016-10-23T08:32:08.263Z,951.52
2016-10-23T08:33:07.900Z,951.52
2016-10-23T08:34:08.567Z,951.51
2016-10-23T08:35:07.724Z,951.53
2016-10-23T08:36:08.386Z,951.48
2016-10-23T08:37:09.220Z,951.48
2016-10-23T08:38:08.117Z,951.47
2016-10-23T08:39:07.834Z,951.47
2016-10-23T08:40:07.409Z,951.45
2016-10-23T08:41:08.057Z,951.43
2016-10-23T08:42:07.651Z,951.45
2016-10-23T08:43:08.422Z,951.41
2016-10-23T08:44:08.293Z,951.39
2016-10-23T08:45:07.929Z,951.41
2016-10-23T08:46:07.845Z,951.36
2016-10-23T08:47:07.527Z,951.40
2016-10-23T08:48:08.586Z,951.39
2016-10-23T08:49:08.142Z,951.32
2016-10-23T08:50:07.654Z,951.35
2016-10-23T08:51:08.183Z,951.36
2016-10-23T08:52:07.725Z,951.33
2016-10-23T08:53:08.197Z,951.37
2016-10-23T08:54:08.519Z,951.35
2016-10-23T08:55:08.562Z,951.31
2016-10-23T08:56:08.229Z,951.30
2016-10-23T08:57:07.887Z,951.34
2016-10-23T08:58:08.138Z,951.32
2016-10-23T08:59:07.946Z,951.30
2016-10-23T09:00:07.815Z,951.24
2016-10-23T09:01:08.417Z,951.33
2016-10-23T09:02:08.078Z,951.30
2016-10-23T09:03:09.290Z,951.34
2016-10-23T09:04:07.879Z,951.35
2016-10-23T09:05:07.537Z,951.30
2016-10-23T09:06:08.189Z,951.29
2016-10-23T09:07:07.909Z,951.30
2016-10-23T09:08:07.579Z,951.27
2016-10-23T09:09:08.237Z,951.25
2016-10-23T09:10:07.967Z,951.22
2016-10-23T09:11:13.396Z,951.22
2016-10-23T09:12:08.249Z,951.19
2016-10-23T09:13:07.810Z,951.18
2016-10-23T09:14:08.362Z,951.21
2016-10-23T09:15:08.747Z,951.15
2016-10-23T09:16:07.470Z,951.18
2016-10-23T09:17:07.688Z,951.23
2016-10-23T09:18:08.004Z,951.27
2016-10-23T09:19:13.170Z,951.25
2016-10-23T09:20:07.915Z,951.32
2016-10-23T09:21:07.563Z,951.28
2016-10-23T09:22:08.742Z,951.36
2016-10-23T09:23:07.413Z,951.39
2016-10-23T09:24:07.990Z,951.38
2016-10-23T09:25:07.509Z,951.40
2016-10-23T09:26:08.140Z,951.39
2016-10-23T09:27:07.789Z,951.34
2016-10-23T09:28:07.424Z,951.32
2016-10-23T09:29:08.028Z,951.28
2016-10-23T09:30:07.754Z,951.26
2016-10-23T09:31:09.021Z,951.16
2016-10-23T09:32:07.654Z,951.19
2016-10-23T09:33:08.446Z,951.16
2016-10-23T09:34:09.226Z,951.18
2016-10-23T09:35:08.205Z,951.20
2016-10-23T09:36:07.893Z,951.21
2016-10-23T09:37:07.567Z,951.16
2016-10-23T09:38:08.716Z,951.20
2016-10-23T09:39:10.335Z,951.19
2016-10-23T09:40:08.034Z,951.21
2016-10-23T09:41:07.655Z,951.22
2016-10-23T09:42:08.376Z,951.23
2016-10-23T09:43:07.989Z,951.19
2016-10-23T09:44:07.639Z,951.22
2016-10-23T09:45:08.285Z,951.20
2016-10-23T09:46:08.040Z,951.25
2016-10-23T09:47:07.750Z,951.23
2016-10-23T09:48:07.326Z,951.30
2016-10-23T09:49:07.927Z,951.25
2016-10-23T09:50:07.506Z,951.28
2016-10-23T09:51:08.088Z,951.27
2016-10-23T09:52:07.597Z,951.22
2016-10-23T09:53:09.462Z,951.21
2016-10-23T09:54:08.398Z,951.18
2016-10-23T09:55:08.123Z,951.22
2016-10-23T09:56:08.961Z,951.18
2016-10-23T09:57:09.219Z,951.19
2016-10-23T09:58:20.251Z,951.18
2016-10-23T09:59:09.321Z,951.20
2016-10-23T10:00:08.252Z,951.20
2016-10-23T10:01:07.861Z,951.21
2016-10-23T10:02:07.523Z,951.20
2016-10-23T10:03:08.242Z,951.23
2016-10-23T10:04:08.703Z,951.23
2016-10-23T10:05:08.823Z,951.24
2016-10-23T10:06:07.449Z,951.30
2016-10-23T10:07:08.203Z,951.26
2016-10-23T10:08:07.905Z,951.27
2016-10-23T10:09:08.454Z,951.25
2016-10-23T10:10:09.277Z,951.27
2016-10-23T10:11:08.814Z,951.25
2016-10-23T10:12:07.337Z,951.28
2016-10-23T10:13:07.884Z,951.29
2016-10-23T10:14:08.314Z,951.30
2016-10-23T10:15:07.877Z,951.33
2016-10-23T10:16:07.438Z,951.30
2016-10-23T10:17:08.163Z,951.22
2016-10-23T10:18:08.148Z,951.19
2016-10-23T10:19:07.914Z,951.05
2016-10-23T10:20:22.160Z,950.97
2016-10-23T10:21:08.180Z,950.77
2016-10-23T10:22:08.398Z,950.72
2016-10-23T10:23:08.057Z,950.69
2016-10-23T10:24:07.470Z,950.66
2016-10-23T10:25:09.480Z,950.69
2016-10-23T10:26:08.220Z,950.72
2016-10-23T10:27:08.118Z,950.76
2016-10-23T10:28:07.843Z,950.77
2016-10-23T10:29:07.458Z,950.84
2016-10-23T10:30:08.204Z,950.91
2016-10-23T10:31:08.529Z,950.92
2016-10-23T10:32:08.374Z,950.92
2016-10-23T10:33:08.078Z,950.95
2016-10-23T10:34:07.779Z,950.92
2016-10-23T10:35:07.546Z,950.91
2016-10-23T10:36:08.127Z,950.95
2016-10-23T10:37:08.076Z,950.90
2016-10-23T10:38:18.338Z,950.91
2016-10-23T10:39:08.415Z,950.91
2016-10-23T10:40:16.435Z,950.91
2016-10-23T10:41:07.933Z,950.91
2016-10-23T10:42:07.410Z,950.89
2016-10-23T10:43:07.946Z,950.88
2016-10-23T10:44:07.966Z,950.88
2016-10-23T10:45:07.593Z,950.86
2016-10-23T10:46:08.258Z,950.85
2016-10-23T10:47:19.262Z,950.82
2016-10-23T10:48:08.811Z,950.79
2016-10-23T10:49:08.283Z,950.75
2016-10-23T10:50:09.501Z,950.77
2016-10-23T10:51:09.535Z,950.73
2016-10-23T10:52:08.206Z,950.76
2016-10-23T10:53:08.289Z,950.65
2016-10-23T10:54:07.834Z,950.69
2016-10-23T10:55:07.529Z,950.67
2016-10-23T10:56:07.558Z,950.68
2016-10-23T10:57:08.084Z,950.73
2016-10-23T10:58:07.556Z,950.70
2016-10-23T10:59:08.104Z,950.70
2016-10-23T11:00:08.639Z,950.65
2016-10-23T11:01:08.949Z,950.66
2016-10-23T11:02:07.767Z,950.58
2016-10-23T11:03:07.453Z,950.58
2016-10-23T11:04:08.153Z,950.62
2016-10-23T11:05:07.797Z,950.57
2016-10-23T11:06:07.346Z,950.62
2016-10-23T11:07:07.929Z,950.56
2016-10-23T11:08:07.588Z,950.56
2016-10-23T11:09:08.273Z,950.61
2016-10-23T11:10:07.854Z,950.58
2016-10-23T11:11:07.513Z,950.57
2016-10-23T11:12:08.199Z,950.54
2016-10-23T11:13:07.782Z,950.50
2016-10-23T11:14:08.845Z,950.50
2016-10-23T11:15:07.451Z,950.46
2016-10-23T11:16:08.017Z,950.44
2016-10-23T11:17:07.740Z,950.42
2016-10-23T11:18:08.381Z,950.41
2016-10-23T11:19:18.587Z,950.37
2016-10-23T11:20:08.212Z,950.33
2016-10-23T11:21:07.797Z,950.37
2016-10-23T11:22:07.305Z,950.33
2016-10-23T11:23:07.826Z,950.40
2016-10-23T11:24:07.299Z,950.40
2016-10-23T11:25:07.770Z,950.34
2016-10-23T11:26:07.407Z,950.40
2016-10-23T11:27:08.091Z,950.34
2016-10-23T11:28:07.836Z,950.29
2016-10-23T11:29:07.480Z,950.29
2016-10-23T11:30:08.169Z,950.33
2016-10-23T11:31:08.021Z,950.29
2016-10-23T11:32:07.745Z,950.26
2016-10-23T11:33:07.308Z,950.26
2016-10-23T11:34:07.936Z,950.21
2016-10-23T11:35:07.564Z,950.17
2016-10-23T11:36:08.236Z,950.22
2016-10-23T11:37:08.566Z,950.25
2016-10-23T11:38:09.121Z,950.16
2016-10-23T11:39:08.273Z,950.17
2016-10-23T11:40:09.517Z,950.11
2016-10-23T11:41:09.037Z,950.09
2016-10-23T11:42:08.038Z,950.04
2016-10-23T11:43:08.046Z,950.08
2016-10-23T11:44:07.758Z,950.07
2016-10-23T11:45:07.460Z,950.05
2016-10-23T11:46:07.464Z,950.02
2016-10-23T11:47:07.907Z,950.03
2016-10-23T11:48:07.570Z,949.99
2016-10-23T11:49:08.603Z,949.97
2016-10-23T11:50:24.513Z,950.01
2016-10-23T11:51:08.328Z,950.03
2016-10-23T11:52:14.635Z,949.99
2016-10-23T11:53:07.308Z,950.05
2016-10-23T11:54:07.822Z,950.09
2016-10-23T11:55:07.349Z,950.05
2016-10-23T11:56:07.946Z,950.07
2016-10-23T11:57:07.554Z,950.04
2016-10-23T11:58:08.184Z,950.02
2016-10-23T11:59:07.822Z,949.94
2016-10-23T12:00:07.679Z,949.95
2016-10-23T12:01:08.809Z,949.91
2016-10-23T12:02:07.434Z,949.86
2016-10-23T12:03:08.088Z,949.85
2016-10-23T12:04:07.696Z,949.83
2016-10-23T12:05:08.178Z,949.84
2016-10-23T12:06:07.814Z,949.91
2016-10-23T12:07:07.466Z,949.93
2016-10-23T12:08:15.644Z,949.99
2016-10-23T12:09:07.579Z,950.03
2016-10-23T12:10:08.346Z,950.03
2016-10-23T12:11:08.837Z,950.00
2016-10-23T12:12:07.341Z,950.03
2016-10-23T12:13:08.007Z,949.93
2016-10-23T12:14:07.487Z,949.93
2016-10-23T12:15:08.055Z,949.98
2016-10-23T12:16:07.688Z,949.95
2016-10-23T12:17:08.370Z,949.99
2016-10-23T12:18:08.302Z,950.00
2016-10-23T12:19:08.808Z,949.99
2016-10-23T12:20:07.420Z,949.93
2016-10-23T12:21:08.014Z,949.95
2016-10-23T12:22:07.583Z,949.94
2016-10-23T12:23:08.095Z,949.90
2016-10-23T12:24:08.552Z,949.90
2016-10-23T12:25:08.260Z,949.92
2016-10-23T12:26:07.943Z,949.89
2016-10-23T12:27:07.551Z,949.91
2016-10-23T12:28:08.320Z,949.86